createdAt,value
2019-03-06T00:01:31.811Z,58.21
2019-03-06T00:04:00.203Z,58.37
2019-03-06T00:06:32.289Z,58.50
2019-03-06T00:09:13.124Z,58.49
2019-03-06T00:11:49.420Z,58.66
2019-03-06T00:14:17.939Z,59.36
2019-03-06T00:16:46.478Z,59.56
2019-03-06T00:19:15.247Z,59.80
2019-03-06T00:21:43.757Z,60.08
2019-03-06T00:24:13.319Z,60.16
2019-03-06T00:26:59.105Z,59.97
2019-03-06T00:29:52.221Z,60.09
2019-03-06T00:32:16.737Z,59.88
2019-03-06T00:34:45.227Z,60.24
2019-03-06T00:37:13.955Z,60.38
2019-03-06T00:40:01.304Z,60.75
2019-03-06T00:42:33.769Z,60.79
2019-03-06T00:45:51.256Z,60.87
2019-03-06T00:47:34.487Z,61.12
2019-03-06T00:50:03.112Z,61.45
2019-03-06T00:52:32.667Z,61.49
2019-03-06T00:55:01.859Z,61.58
2019-03-06T00:57:30.641Z,61.72
2019-03-06T01:00:04.455Z,61.98
2019-03-06T01:02:32.011Z,62.25
2019-03-06T01:05:01.567Z,62.42
2019-03-06T01:07:33.010Z,62.64
2019-03-06T01:10:03.043Z,62.95
2019-03-06T01:12:31.565Z,63.04
2019-03-06T01:14:59.983Z,63.04
2019-03-06T01:17:29.964Z,62.91
2019-03-06T01:19:58.498Z,62.87
2019-03-06T01:22:27.013Z,62.78
2019-03-06T01:24:55.467Z,62.86
2019-03-06T01:27:25.535Z,62.83
2019-03-06T01:29:54.270Z,63.03
2019-03-06T01:32:24.060Z,63.44
2019-03-06T01:35:17.593Z,63.69
2019-03-06T01:38:04.222Z,63.96
2019-03-06T01:40:41.495Z,64.04
2019-03-06T01:43:29.445Z,63.93
2019-03-06T01:45:58.180Z,64.43
2019-03-06T01:48:34.260Z,64.59
2019-03-06T01:51:07.615Z,64.53
2019-03-06T01:53:37.002Z,64.82
2019-03-06T01:56:07.156Z,64.94
2019-03-06T01:58:37.560Z,65.38
2019-03-06T02:01:10.788Z,65.05
2019-03-06T02:03:45.364Z,65.09
2019-03-06T02:06:14.033Z,65.09
2019-03-06T02:08:42.602Z,65.36
2019-03-06T02:11:16.663Z,65.49
2019-03-06T02:13:45.512Z,65.61
2019-03-06T02:16:14.210Z,65.32
2019-03-06T02:18:43.220Z,64.99
2019-03-06T02:21:13.222Z,64.79
2019-03-06T02:23:41.675Z,64.69
2019-03-06T02:26:12.270Z,64.88
2019-03-06T02:28:43.749Z,64.79
2019-03-06T02:31:14.759Z,64.79
2019-03-06T02:33:45.916Z,65.04
2019-03-06T02:36:15.184Z,65.63
2019-03-06T02:38:44.332Z,65.38
2019-03-06T02:41:13.860Z,65.10
2019-03-06T02:43:43.374Z,65.02
2019-03-06T02:46:14.708Z,65.24
2019-03-06T02:48:43.240Z,65.17
2019-03-06T02:51:11.595Z,66.70
2019-03-06T02:53:40.137Z,66.30
2019-03-06T02:56:10.947Z,65.85
2019-03-06T02:59:20.018Z,65.41
2019-03-06T03:01:59.935Z,65.28
2019-03-06T03:04:39.484Z,66.14
2019-03-06T03:07:14.417Z,66.28
2019-03-06T03:09:43.254Z,65.94
2019-03-06T03:12:11.680Z,65.76
2019-03-06T03:14:40.139Z,66.17
2019-03-06T03:17:08.527Z,66.26
2019-03-06T03:19:37.081Z,65.95
2019-03-06T03:22:08.079Z,65.84
2019-03-06T03:24:37.337Z,66.38
2019-03-06T03:27:13.756Z,66.14
2019-03-06T03:29:44.009Z,66.25
2019-03-06T03:32:12.913Z,65.99
2019-03-06T03:34:43.252Z,66.12
2019-03-06T03:37:12.411Z,66.26
2019-03-06T03:39:44.769Z,65.87
2019-03-06T03:42:14.888Z,65.66
2019-03-06T03:44:47.094Z,65.72
2019-03-06T03:47:16.178Z,65.36
2019-03-06T03:49:44.753Z,65.36
2019-03-06T03:52:16.513Z,65.48
2019-03-06T03:54:44.952Z,65.46
2019-03-06T03:57:13.636Z,65.85
2019-03-06T03:59:42.415Z,65.68
2019-03-06T04:02:14.936Z,65.41
2019-03-06T04:04:45.739Z,65.41
2019-03-06T04:07:14.199Z,65.36
2019-03-06T04:09:45.688Z,65.12
2019-03-06T04:12:14.219Z,65.36
2019-03-06T04:14:42.636Z,65.61
2019-03-06T04:17:11.140Z,65.45
2019-03-06T04:19:39.931Z,65.12
2019-03-06T04:22:14.783Z,65.15
2019-03-06T04:24:46.539Z,65.04
2019-03-06T04:27:14.993Z,64.89
2019-03-06T04:29:44.032Z,64.95
2019-03-06T04:32:12.838Z,64.93
2019-03-06T04:34:43.095Z,65.03
2019-03-06T04:37:14.225Z,65.33
2019-03-06T04:39:43.449Z,65.36
2019-03-06T04:42:11.781Z,65.35
2019-03-06T04:44:40.264Z,65.60
2019-03-06T04:47:09.000Z,65.62
2019-03-06T04:49:37.790Z,65.43
2019-03-06T04:52:12.203Z,65.46
2019-03-06T04:54:40.632Z,65.76
2019-03-06T04:57:09.247Z,65.95
2019-03-06T04:59:38.673Z,66.37
2019-03-06T05:02:07.266Z,66.02
2019-03-06T05:04:38.820Z,66.04
2019-03-06T05:07:07.683Z,65.87
2019-03-06T05:09:36.258Z,66.10
2019-03-06T05:12:05.328Z,66.56
2019-03-06T05:14:34.785Z,66.26
2019-03-06T05:17:34.145Z,66.70
2019-03-06T05:20:05.959Z,66.64
2019-03-06T05:22:34.660Z,66.54
2019-03-06T05:25:03.124Z,66.22
2019-03-06T05:27:31.631Z,65.96
2019-03-06T05:30:04.119Z,66.58
2019-03-06T05:32:32.686Z,66.46
2019-03-06T05:35:02.797Z,66.08
2019-03-06T05:38:00.464Z,65.78
2019-03-06T05:40:29.449Z,66.36
2019-03-06T05:42:58.901Z,66.97
2019-03-06T05:45:31.480Z,66.61
2019-03-06T05:48:03.249Z,66.14
2019-03-06T05:50:38.044Z,65.87
2019-03-06T05:53:08.634Z,65.72
2019-03-06T05:55:37.982Z,65.49
2019-03-06T05:58:10.477Z,65.21
2019-03-06T06:00:51.313Z,65.04
2019-03-06T06:03:22.780Z,64.95
2019-03-06T06:05:51.779Z,64.79
2019-03-06T06:08:21.674Z,64.93
2019-03-06T06:10:52.084Z,64.66
2019-03-06T06:13:23.314Z,65.02
2019-03-06T06:15:52.639Z,65.23
2019-03-06T06:18:24.233Z,64.77
2019-03-06T06:21:09.034Z,64.59
2019-03-06T06:23:48.726Z,64.23
2019-03-06T06:26:17.614Z,64.16
2019-03-06T06:28:46.169Z,63.97
2019-03-06T06:31:19.716Z,63.80
2019-03-06T06:33:55.692Z,63.68
2019-03-06T06:36:29.583Z,63.55
2019-03-06T06:38:59.486Z,63.70
2019-03-06T06:42:39.808Z,63.60
2019-03-06T06:45:27.320Z,63.53
2019-03-06T06:48:22.552Z,63.51
2019-03-06T06:51:20.431Z,63.22
2019-03-06T06:54:13.156Z,63.38
2019-03-06T06:57:00.665Z,63.05
2019-03-06T06:59:50.059Z,62.98
2019-03-06T07:03:22.199Z,63.06
2019-03-06T07:06:01.500Z,62.95
2019-03-06T07:08:57.547Z,62.89
2019-03-06T07:11:44.222Z,62.44
2019-03-06T07:14:45.178Z,62.13
2019-03-06T07:17:45.470Z,61.92
2019-03-06T07:20:40.241Z,62.04
2019-03-06T07:23:22.557Z,62.66
2019-03-06T07:26:23.544Z,61.63
2019-03-06T07:29:31.449Z,61.88
2019-03-06T07:32:46.728Z,61.88
2019-03-06T07:35:50.023Z,61.21
2019-03-06T07:38:19.912Z,61.16
2019-03-06T07:41:09.176Z,60.99
2019-03-06T07:44:10.011Z,60.69
2019-03-06T07:47:08.292Z,60.12
2019-03-06T07:49:46.163Z,60.08
2019-03-06T07:52:22.734Z,59.27
2019-03-06T07:55:00.424Z,59.33
2019-03-06T07:57:51.156Z,58.83
2019-03-06T08:00:20.771Z,59.15
2019-03-06T08:02:57.078Z,58.11
2019-03-06T08:05:25.839Z,58.11
2019-03-06T08:08:00.305Z,57.85
2019-03-06T08:10:40.519Z,57.34
2019-03-06T08:13:23.918Z,57.13
2019-03-06T08:16:15.466Z,56.71
2019-03-06T08:19:16.786Z,56.37
2019-03-06T08:22:15.886Z,56.04
2019-03-06T08:25:08.324Z,55.25
2019-03-06T08:27:43.814Z,55.00
2019-03-06T08:30:31.172Z,54.08
2019-03-06T08:33:18.679Z,53.88
2019-03-06T08:35:52.209Z,52.54
2019-03-06T08:38:20.993Z,52.54
2019-03-06T08:40:51.210Z,52.19
2019-03-06T08:43:21.982Z,51.66
2019-03-06T08:46:20.765Z,51.43
2019-03-06T08:49:44.317Z,51.35
2019-03-06T08:52:30.931Z,51.26
2019-03-06T08:55:43.608Z,49.88
2019-03-06T08:58:37.218Z,50.12
2019-03-06T09:02:15.603Z,50.76
2019-03-06T09:05:07.828Z,50.56
2019-03-06T09:07:56.186Z,49.97
2019-03-06T09:10:48.275Z,49.83
2019-03-06T09:13:30.723Z,49.26
2019-03-06T09:16:25.615Z,49.31
2019-03-06T09:19:29.282Z,48.28
2019-03-06T09:22:42.118Z,47.99
2019-03-06T09:25:34.879Z,47.41
2019-03-06T09:28:15.829Z,46.95
2019-03-06T09:31:02.984Z,47.05
2019-03-06T09:34:10.496Z,46.79
2019-03-06T09:36:47.004Z,46.67
2019-03-06T09:39:35.883Z,45.99
2019-03-06T09:42:39.200Z,46.15
2019-03-06T09:45:19.613Z,45.39
2019-03-06T09:48:16.853Z,44.63
2019-03-06T09:51:00.261Z,45.13
2019-03-06T09:53:50.031Z,44.20
2019-03-06T09:56:30.938Z,44.01
2019-03-06T09:59:22.338Z,42.90
2019-03-06T10:02:13.743Z,41.13
2019-03-06T10:05:07.864Z,42.18
2019-03-06T10:07:53.744Z,41.84
2019-03-06T10:10:57.591Z,42.72
2019-03-06T10:13:42.168Z,42.72
2019-03-06T10:16:31.389Z,43.19
2019-03-06T10:19:29.642Z,45.62
2019-03-06T10:21:59.181Z,43.92
2019-03-06T10:24:28.540Z,43.92
2019-03-06T10:26:57.276Z,43.20
2019-03-06T10:29:28.563Z,43.50
2019-03-06T10:32:15.679Z,44.96
2019-03-06T10:34:55.998Z,44.96
2019-03-06T10:37:26.966Z,46.17
2019-03-06T10:39:59.712Z,45.55
2019-03-06T10:42:40.735Z,45.16
2019-03-06T10:45:14.827Z,43.82
2019-03-06T10:47:49.471Z,44.45
2019-03-06T10:50:27.366Z,44.35
2019-03-06T10:52:55.520Z,43.33
2019-03-06T10:55:24.268Z,42.93
2019-03-06T10:57:56.388Z,42.95
2019-03-06T11:00:25.843Z,43.45
2019-03-06T11:03:01.309Z,43.41
2019-03-06T11:05:40.761Z,43.09
2019-03-06T11:08:31.414Z,43.12
2019-03-06T11:11:00.558Z,43.46
2019-03-06T11:13:33.731Z,43.01
2019-03-06T11:33:55.069Z,43.06
2019-03-06T11:42:39.265Z,42.60
2019-03-06T11:45:30.565Z,42.12
2019-03-06T11:48:10.979Z,41.41
2019-03-06T11:57:11.724Z,40.85
2019-03-06T11:59:47.889Z,40.63
2019-03-06T12:02:41.707Z,40.71
2019-03-06T12:14:13.333Z,41.77
2019-03-06T12:16:52.625Z,41.34
2019-03-06T12:29:05.537Z,42.38
2019-03-06T12:32:01.677Z,42.64
2019-03-06T12:38:10.751Z,43.03
2019-03-06T12:47:07.035Z,43.09
2019-03-06T12:49:35.707Z,42.83
2019-03-06T12:52:08.749Z,42.54
2019-03-06T12:54:45.299Z,42.54
2019-03-06T12:57:09.870Z,42.63
2019-03-06T13:03:12.446Z,43.05
2019-03-06T13:12:08.799Z,43.02
2019-03-06T13:20:18.470Z,43.43
2019-03-06T13:25:57.302Z,43.52
2019-03-06T13:28:25.707Z,44.00
2019-03-06T13:31:24.730Z,43.24
2019-03-06T13:37:17.390Z,43.74
2019-03-06T13:40:03.314Z,43.54
2019-03-06T13:43:05.405Z,43.54
2019-03-06T13:45:45.594Z,43.13
2019-03-06T13:48:17.248Z,43.33
2019-03-06T13:50:48.065Z,43.48
2019-03-06T13:53:20.364Z,43.08
2019-03-06T14:01:07.837Z,42.66
2019-03-06T14:04:44.413Z,42.70
2019-03-06T14:07:08.751Z,42.54
2019-03-06T14:10:15.746Z,43.95
2019-03-06T14:15:54.269Z,45.64
2019-03-06T14:18:50.335Z,45.26
2019-03-06T14:24:26.116Z,48.53
2019-03-06T14:27:26.190Z,48.26
2019-03-06T14:44:47.260Z,51.36
2019-03-06T14:49:52.541Z,51.30
2019-03-06T14:57:58.587Z,51.49
2019-03-06T15:10:42.670Z,51.75
2019-03-06T15:15:00.683Z,51.81
2019-03-06T15:17:40.144Z,50.90
2019-03-06T15:29:11.934Z,51.44
2019-03-06T15:31:59.508Z,51.42
2019-03-06T15:34:37.786Z,51.19
2019-03-06T15:40:31.123Z,50.91
2019-03-06T15:43:02.072Z,51.02
2019-03-06T15:45:55.150Z,50.82
2019-03-06T15:56:14.805Z,51.29
2019-03-06T16:05:22.271Z,51.11
2019-03-06T16:07:52.964Z,51.37
2019-03-06T16:13:31.510Z,51.34
2019-03-06T16:19:27.712Z,51.01
2019-03-06T16:22:07.092Z,50.59
2019-03-06T16:27:34.191Z,50.62
2019-03-06T16:36:08.394Z,51.10
2019-03-06T16:39:07.946Z,52.02
2019-03-06T16:41:58.766Z,52.31
2019-03-06T16:49:48.922Z,51.75
2019-03-06T16:52:50.110Z,52.26
2019-03-06T16:58:36.197Z,52.46
2019-03-06T17:01:53.584Z,52.44
2019-03-06T17:04:24.178Z,52.51
2019-03-06T17:06:58.878Z,52.70
2019-03-06T17:09:33.134Z,53.11
2019-03-06T17:12:05.309Z,53.20
2019-03-06T17:14:41.611Z,52.91
2019-03-06T17:17:29.054Z,53.04
2019-03-06T17:32:29.635Z,56.34
2019-03-06T17:43:59.859Z,58.04
2019-03-06T17:49:35.063Z,58.51
2019-03-06T17:52:05.196Z,59.41
2019-03-06T17:54:33.614Z,59.77
2019-03-06T17:57:02.073Z,59.62
2019-03-06T18:09:12.792Z,60.25
2019-03-06T18:12:05.821Z,60.51
2019-03-06T18:14:54.396Z,60.65
2019-03-06T18:17:28.423Z,61.71
2019-03-06T18:20:19.096Z,62.02
2019-03-06T18:23:07.809Z,62.31
2019-03-06T18:25:41.471Z,62.09
2019-03-06T18:28:13.020Z,61.42
2019-03-06T18:30:43.586Z,62.13
2019-03-06T18:33:20.345Z,61.82
2019-03-06T18:35:56.348Z,62.20
2019-03-06T18:38:33.264Z,62.52
2019-03-06T18:41:07.861Z,62.63
2019-03-06T18:43:39.759Z,62.63
2019-03-06T18:46:10.670Z,62.10
2019-03-06T18:48:50.037Z,61.98
2019-03-06T18:51:24.816Z,62.19
2019-03-06T18:53:53.267Z,62.51
2019-03-06T18:56:23.929Z,63.15
2019-03-06T18:58:54.122Z,62.17
2019-03-06T19:01:25.943Z,62.29
2019-03-06T19:03:56.748Z,61.63
2019-03-06T19:06:28.415Z,61.36
2019-03-06T19:08:57.242Z,62.14
2019-03-06T19:11:33.366Z,61.43
2019-03-06T19:14:03.085Z,61.22
2019-03-06T19:16:38.604Z,59.99
2019-03-06T19:19:07.980Z,59.51
2019-03-06T19:21:36.424Z,59.62
2019-03-06T19:24:19.823Z,59.84
2019-03-06T19:26:48.231Z,59.95
2019-03-06T19:29:19.382Z,60.77
2019-03-06T19:31:48.324Z,61.76
2019-03-06T19:34:19.216Z,61.30
2019-03-06T19:36:51.443Z,61.30
2019-03-06T19:39:29.324Z,61.14
2019-03-06T19:42:03.153Z,61.36
2019-03-06T19:44:44.193Z,61.89
2019-03-06T19:47:19.090Z,60.83
2019-03-06T19:49:49.973Z,61.35
2019-03-06T19:52:27.698Z,61.63
2019-03-06T19:55:00.959Z,61.27
2019-03-06T19:57:30.200Z,61.91
2019-03-06T20:00:09.734Z,62.16
2019-03-06T20:02:42.259Z,62.41
2019-03-06T20:05:15.332Z,62.41
2019-03-06T20:07:47.108Z,63.10
2019-03-06T20:10:20.411Z,62.48
2019-03-06T20:12:50.811Z,62.44
2019-03-06T20:15:27.087Z,62.43
2019-03-06T20:17:57.809Z,63.30
2019-03-06T20:20:26.195Z,63.96
2019-03-06T20:23:02.717Z,63.94
2019-03-06T20:25:34.496Z,64.80
2019-03-06T20:28:05.214Z,65.15
2019-03-06T20:30:37.114Z,65.12
2019-03-06T20:33:08.499Z,65.70
2019-03-06T20:35:45.782Z,66.15
2019-03-06T20:38:14.670Z,65.82
2019-03-06T20:40:46.267Z,66.90
2019-03-06T20:43:14.795Z,65.74
2019-03-06T20:45:49.554Z,66.38
2019-03-06T20:48:18.020Z,65.95
2019-03-06T20:50:51.048Z,66.48
2019-03-06T20:53:23.231Z,66.56
2019-03-06T20:56:06.814Z,65.53
2019-03-06T20:58:36.058Z,64.70
2019-03-06T21:01:05.747Z,65.90
2019-03-06T21:07:38.259Z,65.17
2019-03-06T21:11:47.106Z,66.42
2019-03-06T21:16:58.369Z,64.92
2019-03-06T21:22:53.650Z,64.20
2019-03-06T21:35:15.124Z,62.87
2019-03-06T21:41:17.772Z,62.76
2019-03-06T21:44:06.928Z,62.58
2019-03-06T21:46:41.952Z,62.73
2019-03-06T21:49:29.290Z,62.57
2019-03-06T21:52:28.272Z,62.49
2019-03-06T21:58:15.543Z,62.86
2019-03-06T22:04:02.047Z,62.97
2019-03-06T22:09:47.218Z,62.43
2019-03-06T22:30:07.246Z,63.58
2019-03-06T22:32:40.757Z,63.49
2019-03-06T22:35:42.442Z,63.54
2019-03-06T22:50:41.356Z,63.74
2019-03-06T22:53:22.034Z,63.66
2019-03-06T22:56:01.121Z,63.45
2019-03-06T23:01:36.765Z,63.42
2019-03-06T23:04:06.936Z,63.73
2019-03-06T23:06:38.780Z,63.88
2019-03-06T23:09:19.736Z,64.12
2019-03-06T23:11:41.294Z,64.93
2019-03-06T23:14:13.288Z,65.38
